Time;durP1;ratioP1;P1;durP2;ratioP2;P2;SDS_P1;SDS_P2;PMS_P1;PMS_P2;Temp;Humidity;BMP_temperature;BMP_pressure;BME280_temperature;BME280_humidity;BME280_pressure;Samples;Min_cycle;Max_cycle;Signal;HPM_P1;HPM_P2
2022/01/09 00:00:38;;;;;;;9.30;6.93;;;;;;;-0.35;100.00;96766.28;10314714;28;20054;-81
2022/01/09 00:06:14;;;;;;;11.25;6.85;;;;;;;-0.28;100.00;96744.78;10310403;28;20054;-80
2022/01/09 00:11:18;;;;;;;11.55;6.90;;;;;;;-0.29;100.00;96735.31;10354991;28;20114;-78
2022/01/09 00:16:20;;;;;;;10.13;6.70;;;;;;;-0.25;100.00;96723.13;10333863;28;20061;-81
2022/01/09 00:21:21;;;;;;;9.07;6.40;;;;;;;-0.30;100.00;96726.63;10341487;28;20053;-80
2022/01/09 00:26:22;;;;;;;7.65;6.10;;;;;;;-0.28;100.00;96705.25;10339024;28;20158;-80
2022/01/09 00:31:23;;;;;;;10.73;6.93;;;;;;;-0.34;100.00;96701.94;10329348;28;20081;-80
2022/01/09 00:36:23;;;;;;;10.20;7.28;;;;;;;-0.42;100.00;96673.63;10306290;28;20067;-80
2022/01/09 00:41:27;;;;;;;11.40;7.10;;;;;;;-0.45;100.00;96671.56;10315845;28;20055;-79
2022/01/09 00:46:35;;;;;;;10.25;6.47;;;;;;;-0.39;100.00;96665.13;10334504;28;20047;-79
2022/01/09 00:51:36;;;;;;;9.85;6.80;;;;;;;-0.38;100.00;96655.34;10334412;28;20046;-79
2022/01/09 00:56:39;;;;;;;9.25;6.35;;;;;;;-0.33;100.00;96647.38;10318082;28;20116;-81
2022/01/09 01:01:42;;;;;;;8.98;6.20;;;;;;;-0.37;100.00;96620.00;10314780;28;20149;-80
2022/01/09 01:06:43;;;;;;;;;;;;;;;-0.29;100.00;96622.75;10313671;28;20108;-81
2022/01/09 01:11:45;;;;;;;7.35;5.20;;;;;;;-0.21;100.00;96599.41;10337687;28;20282;-81
2022/01/09 01:16:45;;;;;;;8.07;5.32;;;;;;;-0.27;100.00;96598.75;10329694;28;20066;-81
2022/01/09 01:21:51;;;;;;;9.73;5.65;;;;;;;-0.26;100.00;96594.25;10348672;28;20113;-80
2022/01/09 01:26:52;;;;;;;9.45;5.93;;;;;;;-0.30;100.00;96586.16;10309188;28;20065;-79
2022/01/09 01:31:53;;;;;;;10.13;5.95;;;;;;;-0.39;100.00;96591.31;10326863;28;20371;-80
2022/01/09 01:36:54;;;;;;;8.07;5.82;;;;;;;-0.41;100.00;96572.38;10340254;28;20328;-80
2022/01/09 01:41:55;;;;;;;9.35;5.10;;;;;;;-0.41;100.00;96587.41;10328289;28;20046;-78
2022/01/09 01:46:57;;;;;;;8.23;5.85;;;;;;;-0.40;100.00;96568.69;10353139;28;20090;-78
2022/01/09 01:51:59;;;;;;;8.25;6.20;;;;;;;-0.42;100.00;96559.50;10346896;28;20054;-77
2022/01/09 01:57:00;;;;;;;11.18;6.18;;;;;;;-0.53;100.00;96544.97;10348422;28;20050;-78
2022/01/09 02:02:00;;;;;;;9.50;6.30;;;;;;;-0.51;100.00;96548.09;10356037;28;20118;-76
2022/01/09 02:07:02;;;;;;;10.93;6.05;;;;;;;-0.46;100.00;96540.84;10327386;28;20104;-76
2022/01/09 02:12:04;;;;;;;7.68;4.88;;;;;;;-0.41;100.00;96535.50;10317523;28;20054;-76
2022/01/09 02:17:05;;;;;;;8.55;5.05;;;;;;;-0.43;100.00;96523.69;10325222;28;20486;-77
2022/01/09 02:22:06;;;;;;;6.72;5.18;;;;;;;-0.42;100.00;96517.34;10328631;28;20053;-76
2022/01/09 02:27:08;;;;;;;6.68;4.85;;;;;;;-0.47;100.00;96517.44;10299202;28;20410;-77
2022/01/09 02:32:08;;;;;;;12.00;6.10;;;;;;;-0.55;100.00;96510.22;10323634;28;20144;-75
2022/01/09 02:37:12;;;;;;;10.18;5.35;;;;;;;-0.62;100.00;96502.72;10327033;28;20065;-75
2022/01/09 02:42:25;;;;;;;8.30;5.82;;;;;;;-0.64;100.00;96492.50;10317268;28;20054;-75
2022/01/09 02:47:29;;;;;;;10.50;6.18;;;;;;;-0.63;100.00;96485.38;10320660;28;20050;-75
2022/01/09 02:52:35;;;;;;;10.70;6.10;;;;;;;-0.61;100.00;96464.78;10320450;28;20054;-76
2022/01/09 02:57:47;;;;;;;8.60;5.82;;;;;;;-0.58;100.00;96479.97;10310625;28;20477;-75
2022/01/09 03:02:52;;;;;;;7.90;5.65;;;;;;;-0.59;100.00;96449.44;10316705;28;20086;-75
2022/01/09 03:07:53;;;;;;;7.32;5.15;;;;;;;-0.49;100.00;96462.41;10317545;28;20061;-74
2022/01/09 03:12:56;;;;;;;9.00;5.90;;;;;;;-0.55;100.00;96439.84;10317974;28;20070;-76
2022/01/09 03:17:57;;;;;;;9.63;5.20;;;;;;;-0.47;100.00;96446.28;10328637;28;20038;-75
2022/01/09 03:22:58;;;;;;;7.25;4.78;;;;;;;-0.46;100.00;96438.09;10358324;28;20046;-77
2022/01/09 03:27:59;;;;;;;6.72;4.85;;;;;;;-0.44;100.00;96437.81;10343714;28;20058;-76
2022/01/09 03:33:00;;;;;;;6.57;5.00;;;;;;;-0.38;100.00;96431.34;10334728;28;20054;-76
2022/01/09 03:38:01;;;;;;;6.65;4.88;;;;;;;-0.37;100.00;96424.97;10314767;28;20109;-76
2022/01/09 03:43:01;;;;;;;5.57;4.07;;;;;;;-0.38;100.00;96423.44;10312914;28;20070;-76
2022/01/09 03:48:02;;;;;;;5.80;4.25;;;;;;;-0.33;100.00;96423.31;10332694;28;20114;-76
2022/01/09 03:53:04;;;;;;;6.60;4.45;;;;;;;-0.23;100.00;96423.09;10357535;28;20532;-76
2022/01/09 03:58:06;;;;;;;6.50;4.78;;;;;;;-0.23;100.00;96399.38;10325488;28;20046;-76
2022/01/09 04:03:06;;;;;;;7.53;4.63;;;;;;;-0.15;100.00;96406.56;10322533;28;20085;-75
2022/01/09 04:08:08;;;;;;;5.93;4.32;;;;;;;-0.09;100.00;96400.09;10295740;28;20089;-76
2022/01/09 04:13:12;;;;;;;5.05;3.95;;;;;;;0.00;100.00;96400.16;10303350;28;20069;-75
2022/01/09 04:18:24;;;;;;;4.75;3.50;;;;;;;0.02;100.00;96390.09;10318058;28;20454;-75
2022/01/09 04:23:24;;;;;;;5.32;3.65;;;;;;;0.06;100.00;96379.69;10320106;28;20132;-76
2022/01/09 04:28:27;;;;;;;5.07;3.90;;;;;;;0.10;100.00;96389.38;10320798;28;20058;-76
2022/01/09 04:33:28;;;;;;;5.27;4.00;;;;;;;0.13;100.00;96380.84;10304270;28;20394;-77
2022/01/09 04:38:28;;;;;;;5.45;3.78;;;;;;;0.14;100.00;96382.38;10320120;28;20042;-76
2022/01/09 04:43:29;;;;;;;3.92;3.47;;;;;;;0.21;100.00;96384.59;10272274;28;20062;-76
2022/01/09 04:48:31;;;;;;;4.25;3.35;;;;;;;0.31;100.00;96373.78;10320418;28;20057;-76
2022/01/09 04:53:31;;;;;;;3.40;3.03;;;;;;;0.25;100.00;96375.78;10302702;28;20139;-78
2022/01/09 04:58:34;;;;;;;;;;;;;;;0.26;100.00;96377.31;10303746;28;20057;-77
2022/01/09 05:03:36;;;;;;;3.80;3.08;;;;;;;0.30;100.00;96374.88;10343785;28;19926;-76
2022/01/09 05:08:36;;;;;;;4.22;3.15;;;;;;;0.33;100.00;96378.75;10325333;28;20101;-75
2022/01/09 05:13:37;;;;;;;4.10;3.33;;;;;;;0.36;100.00;96376.28;10304347;28;20088;-75
2022/01/09 05:18:51;;;;;;;4.38;3.33;;;;;;;0.42;100.00;96383.00;10303976;28;20047;-75
2022/01/09 05:23:51;;;;;;;;;;;;;;;0.46;100.00;96391.09;10319881;28;20054;-73
2022/01/09 05:28:52;;;;;;;4.13;2.88;;;;;;;0.43;100.00;96396.97;10310377;28;19948;-75
2022/01/09 05:33:53;;;;;;;4.20;3.08;;;;;;;0.49;100.00;96406.31;10310596;28;20058;-77
2022/01/09 05:38:54;;;;;;;4.28;3.08;;;;;;;0.56;100.00;96411.94;10319657;28;20053;-78
2022/01/09 05:43:55;;;;;;;3.83;3.30;;;;;;;0.53;100.00;96421.22;10324949;28;20507;-78
2022/01/09 05:48:55;;;;;;;4.22;3.20;;;;;;;0.57;100.00;96421.44;10330114;28;20096;-76
2022/01/09 05:53:56;;;;;;;4.95;3.78;;;;;;;0.61;100.00;96424.22;10328214;28;20141;-77
2022/01/09 05:58:56;;;;;;;5.53;3.78;;;;;;;0.69;100.00;96434.81;10328970;28;20505;-76
2022/01/09 06:03:57;;;;;;;5.75;3.50;;;;;;;0.73;100.00;96442.91;10329734;28;20062;-77
2022/01/09 06:08:58;;;;;;;4.95;4.35;;;;;;;0.74;100.00;96436.56;10325983;28;20435;-77
2022/01/09 06:13:58;;;;;;;5.93;4.15;;;;;;;0.76;100.00;96445.75;10315044;28;20097;-77
2022/01/09 06:18:59;;;;;;;6.35;3.90;;;;;;;0.87;100.00;96450.75;10314103;28;20085;-76
2022/01/09 06:23:59;;;;;;;7.15;4.55;;;;;;;0.92;100.00;96463.84;10325690;28;20065;-76
2022/01/09 06:29:00;;;;;;;6.68;3.92;;;;;;;1.03;100.00;96467.75;10328697;28;20054;-75
2022/01/09 06:34:00;;;;;;;7.63;4.53;;;;;;;1.11;100.00;96473.06;10315048;28;20079;-75
2022/01/09 06:39:01;;;;;;;6.50;4.20;;;;;;;1.12;100.00;96484.41;10334401;28;20042;-76
2022/01/09 06:44:02;;;;;;;7.07;4.43;;;;;;;1.18;100.00;96480.53;10327618;28;20832;-76
2022/01/09 06:49:04;;;;;;;6.47;4.13;;;;;;;1.21;100.00;96501.06;10297670;28;20452;-77
2022/01/09 06:54:06;;;;;;;7.05;3.83;;;;;;;1.30;100.00;96511.69;10304947;28;20053;-77
2022/01/09 06:59:08;;;;;;;4.78;3.72;;;;;;;1.38;100.00;96532.84;10325978;28;20094;-77
2022/01/09 07:04:09;;;;;;;4.70;2.92;;;;;;;1.46;100.00;96538.44;10324815;28;20065;-76
2022/01/09 07:09:10;;;;;;;3.33;2.70;;;;;;;1.56;100.00;96562.75;10324895;28;20185;-77
2022/01/09 07:14:11;;;;;;;3.08;2.05;;;;;;;1.61;100.00;96572.41;10323028;28;20502;-75
2022/01/09 07:19:12;;;;;;;1.80;1.38;;;;;;;1.75;100.00;96577.59;10323573;28;20055;-77
2022/01/09 07:24:16;;;;;;;2.72;1.15;;;;;;;1.79;100.00;96595.19;10323360;28;20061;-77
2022/01/09 07:29:16;;;;;;;;;;;;;;;2.01;100.00;96589.00;10326343;28;20168;-82
2022/01/09 07:34:18;;;;;;;0.60;0.50;;;;;;;2.08;100.00;96607.84;10314475;28;20048;-78
2022/01/09 07:39:19;;;;;;;1.08;0.68;;;;;;;2.12;100.00;96618.59;10310354;28;20433;-79
2022/01/09 07:44:21;;;;;;;0.50;0.50;;;;;;;2.07;100.00;96637.25;10328031;28;20137;-77
2022/01/09 07:49:23;;;;;;;0.75;0.50;;;;;;;2.12;100.00;96645.06;10309816;28;20137;-78
2022/01/09 07:54:24;;;;;;;0.75;0.50;;;;;;;2.10;100.00;96650.66;10331342;28;20050;-80
2022/01/09 07:59:25;;;;;;;0.65;0.30;;;;;;;2.04;100.00;96667.78;10333646;28;20374;-77
2022/01/09 08:04:25;;;;;;;0.98;0.68;;;;;;;1.98;100.00;96690.94;10347156;28;20055;-77
2022/01/09 08:09:26;;;;;;;0.52;0.50;;;;;;;1.95;100.00;96693.41;10344151;28;20336;-77
2022/01/09 08:14:26;;;;;;;1.02;0.70;;;;;;;1.91;100.00;96705.69;10352109;28;20923;-77
2022/01/09 08:19:30;;;;;;;0.50;0.50;;;;;;;1.88;100.00;96712.38;10355202;28;20074;-78
2022/01/09 08:24:31;;;;;;;;;;;;;;;1.82;100.00;96731.31;10335917;28;20093;-76
2022/01/09 08:29:31;;;;;;;0.40;0.40;;;;;;;1.77;100.00;96734.88;10344052;28;19929;-79
2022/01/09 08:34:33;;;;;;;0.57;0.50;;;;;;;1.93;100.00;96738.72;10304749;28;20054;-78
2022/01/09 08:39:34;;;;;;;2.85;1.33;;;;;;;1.98;100.00;96738.56;10315319;28;20062;-76
2022/01/09 08:44:36;;;;;;;1.48;0.70;;;;;;;1.95;100.00;96754.28;10305208;28;20054;-77
2022/01/09 08:49:39;;;;;;;1.37;0.70;;;;;;;1.88;100.00;96762.63;10330095;28;20054;-76
2022/01/09 08:54:40;;;;;;;1.42;0.55;;;;;;;1.94;100.00;96763.28;10332108;28;20801;-79
2022/01/09 08:59:41;;;;;;;1.45;0.80;;;;;;;1.97;100.00;96784.63;10306997;28;20105;-79
2022/01/09 09:04:42;;;;;;;0.70;0.70;;;;;;;1.97;100.00;96795.19;10346350;28;20054;-77
2022/01/09 09:09:42;;;;;;;1.75;0.90;;;;;;;2.11;100.00;96803.06;10348636;28;20050;-77
2022/01/09 09:14:43;;;;;;;0.80;0.80;;;;;;;2.07;100.00;96817.19;10323482;28;20124;-77
2022/01/09 09:19:43;;;;;;;1.50;0.80;;;;;;;2.11;100.00;96820.81;10336417;28;20058;-78
2022/01/09 09:24:45;;;;;;;2.08;0.90;;;;;;;2.11;100.00;96831.41;10319437;28;20054;-77
2022/01/09 09:29:46;;;;;;;0.80;0.80;;;;;;;2.12;100.00;96844.34;10325204;28;20069;-76
2022/01/09 09:34:46;;;;;;;3.83;2.13;;;;;;;2.14;100.00;96851.97;10325725;28;20062;-79
2022/01/09 09:39:48;;;;;;;2.90;1.83;;;;;;;2.08;100.00;96874.34;10321715;28;20362;-76
2022/01/09 09:44:49;;;;;;;1.77;1.25;;;;;;;2.09;100.00;96879.31;10324092;28;20066;-77
2022/01/09 09:49:51;;;;;;;1.67;1.23;;;;;;;2.19;100.00;96902.09;10327281;28;20489;-77
2022/01/09 09:54:54;;;;;;;2.08;1.40;;;;;;;2.14;100.00;96904.91;10308856;28;20066;-77
2022/01/09 10:00:07;;;;;;;5.38;2.95;;;;;;;2.05;100.00;96918.06;10314794;28;20093;-79
2022/01/09 10:05:10;;;;;;;4.25;1.40;;;;;;;2.13;100.00;96927.94;10307678;28;20220;-75
2022/01/09 10:10:16;;;;;;;4.07;1.13;;;;;;;2.13;100.00;96935.88;10318589;28;20105;-77
2022/01/09 10:15:19;;;;;;;2.60;1.50;;;;;;;2.17;100.00;96943.97;10325568;28;20794;-77
2022/01/09 10:20:22;;;;;;;3.42;1.15;;;;;;;2.19;100.00;96958.47;10326254;28;20413;-81
2022/01/09 10:25:27;;;;;;;3.25;1.52;;;;;;;2.22;100.00;96968.47;10291519;28;20875;-78
2022/01/09 10:30:33;;;;;;;2.83;1.10;;;;;;;2.21;100.00;96972.22;10327856;28;20081;-78
2022/01/09 10:35:36;;;;;;;1.88;1.00;;;;;;;2.30;100.00;96995.31;10297364;28;20089;-78
2022/01/09 10:40:39;;;;;;;1.80;1.27;;;;;;;2.29;100.00;97002.47;10326993;28;20054;-76
2022/01/09 10:46:07;;;;;;;2.03;1.63;;;;;;;2.32;100.00;97012.47;10322823;28;20050;-79
2022/01/09 10:51:10;;;;;;;2.72;1.40;;;;;;;2.36;100.00;97025.88;10310459;28;20054;-77
2022/01/09 10:56:19;;;;;;;4.18;1.75;;;;;;;2.43;100.00;97024.38;10326471;28;20058;-77
2022/01/09 11:01:23;;;;;;;4.43;1.88;;;;;;;2.41;100.00;97039.00;10285199;28;20085;-77
2022/01/09 11:06:26;;;;;;;3.17;1.58;;;;;;;2.38;100.00;97035.09;10321729;28;20129;-76
2022/01/09 11:11:40;;;;;;;2.03;1.50;;;;;;;2.42;100.00;97048.50;10323347;28;20054;-77
2022/01/09 11:16:51;;;;;;;3.17;2.17;;;;;;;2.33;100.00;97061.69;10332529;28;20058;-77
2022/01/09 11:22:01;;;;;;;2.90;2.00;;;;;;;2.34;100.00;97065.88;10311760;28;20506;-75
2022/01/09 11:27:01;;;;;;;3.20;2.08;;;;;;;2.39;100.00;97065.00;10333775;28;20077;-78
2022/01/09 11:32:15;;;;;;;3.55;1.95;;;;;;;2.44;100.00;97070.94;10318881;28;20054;-76
2022/01/09 11:37:25;;;;;;;;;;;;;;;2.42;100.00;97073.13;10316398;28;20062;-76
2022/01/09 11:42:26;;;;;;;4.03;2.42;;;;;;;2.40;100.00;97083.22;10326941;28;19922;-77
2022/01/09 11:47:26;;;;;;;3.72;2.05;;;;;;;2.45;100.00;97095.56;10313468;28;20515;-77
2022/01/09 11:52:28;;;;;;;3.13;2.33;;;;;;;2.41;100.00;97089.31;10325229;28;20049;-77
2022/01/09 11:57:49;;;;;;;4.95;2.83;;;;;;;2.37;100.00;97094.41;10331410;28;20058;-77
2022/01/09 12:02:49;;;;;;;7.70;4.18;;;;;;;2.47;100.00;97096.03;10309665;28;20078;-77
2022/01/09 12:07:53;;;;;;;5.22;3.28;;;;;;;2.49;100.00;97099.19;10299885;28;20129;-77
2022/01/09 12:12:56;;;;;;;4.80;2.55;;;;;;;2.54;100.00;97102.50;10329437;28;20093;-77
2022/01/09 12:18:00;;;;;;;6.93;3.13;;;;;;;2.62;100.00;97097.56;10315111;28;20054;-76
2022/01/09 12:23:02;;;;;;;6.30;2.78;;;;;;;2.64;100.00;97111.28;10334695;28;20473;-77
2022/01/09 12:28:38;;;;;;;6.95;3.72;;;;;;;2.78;100.00;97110.16;10330292;28;20114;-76
2022/01/09 12:33:40;;;;;;;5.70;3.03;;;;;;;2.84;100.00;97103.69;10311883;28;20374;-78
2022/01/09 12:38:42;;;;;;;4.38;2.53;;;;;;;2.90;100.00;97101.69;10329450;28;20061;-77
2022/01/09 12:43:44;;;;;;;8.82;3.10;;;;;;;2.95;100.00;97095.47;10329301;28;20129;-76
2022/01/09 12:48:58;;;;;;;5.72;2.95;;;;;;;3.28;100.00;97101.28;10302132;28;20073;-79
2022/01/09 12:54:04;;;;;;;9.30;3.30;;;;;;;3.56;100.00;97099.22;10320232;28;20046;-79
2022/01/09 12:59:11;;;;;;;10.43;3.58;;;;;;;3.68;100.00;97102.09;10329733;28;20405;-77
2022/01/09 13:04:22;;;;;;;10.32;4.07;;;;;;;3.84;100.00;97099.78;10324174;28;20054;-78
2022/01/09 13:09:25;;;;;;;6.53;3.08;;;;;;;3.63;100.00;97102.22;10315573;28;20555;-77
2022/01/09 13:14:26;;;;;;;6.60;3.50;;;;;;;3.86;100.00;97106.38;10313963;28;20058;-78
2022/01/09 13:19:27;;;;;;;8.15;3.75;;;;;;;3.80;100.00;97120.88;10332778;28;20290;-78
2022/01/09 13:24:30;;;;;;;6.05;2.55;;;;;;;3.72;100.00;97125.03;10321965;28;20050;-79
2022/01/09 13:29:33;;;;;;;5.88;2.72;;;;;;;3.60;100.00;97129.38;10330132;28;20122;-80
2022/01/09 13:34:36;;;;;;;5.53;2.30;;;;;;;3.55;100.00;97138.22;10338360;28;20054;-78
2022/01/09 13:39:40;;;;;;;6.25;2.90;;;;;;;3.69;100.00;97151.41;10340308;28;20386;-78
2022/01/09 13:44:44;;;;;;;7.00;2.70;;;;;;;3.48;100.00;97159.13;10323744;28;20050;-79
2022/01/09 13:49:48;;;;;;;7.40;3.22;;;;;;;3.51;100.00;97155.84;10333857;28;20503;-78
2022/01/09 13:54:59;;;;;;;;;;;;;;;3.48;100.00;97158.34;10333573;28;20536;-77
2022/01/09 14:00:02;;;;;;;7.18;2.58;;;;;;;3.32;100.00;97147.31;10330288;28;19961;-78
2022/01/09 14:05:16;;;;;;;12.00;2.95;;;;;;;3.32;100.00;97165.88;10325041;28;20546;-79
2022/01/09 14:10:18;;;;;;;10.07;2.72;;;;;;;3.38;100.00;97164.66;10328407;28;20051;-79
2022/01/09 14:15:20;;;;;;;4.70;2.17;;;;;;;3.27;100.00;97171.31;10306077;28;20078;-79
2022/01/09 14:20:29;;;;;;;5.22;2.50;;;;;;;3.23;100.00;97170.34;10338764;28;20085;-78
2022/01/09 14:25:40;;;;;;;6.93;2.78;;;;;;;3.19;100.00;97183.41;10344687;28;20070;-80
2022/01/09 14:30:44;;;;;;;7.13;2.70;;;;;;;3.17;100.00;97185.59;10319131;28;20556;-79
2022/01/09 14:36:04;;;;;;;7.55;2.78;;;;;;;3.22;100.00;97200.59;10317837;28;20065;-80
2022/01/09 14:41:07;;;;;;;6.40;3.83;;;;;;;3.20;100.00;97208.88;10314484;28;20121;-79
2022/01/09 14:46:08;;;;;;;7.75;3.78;;;;;;;3.15;100.00;97214.28;10329604;28;20177;-79
2022/01/09 14:51:11;;;;;;;6.15;3.30;;;;;;;3.09;100.00;97215.47;10341507;28;20042;-79
2022/01/09 14:56:12;;;;;;;5.40;3.05;;;;;;;3.09;100.00;97218.13;10364675;28;20046;-79
2022/01/09 15:01:13;;;;;;;5.38;2.97;;;;;;;3.07;100.00;97218.41;10320975;28;20058;-79
2022/01/09 15:06:15;;;;;;;8.70;3.55;;;;;;;2.92;100.00;97234.66;10353035;28;20070;-80
2022/01/09 15:11:16;;;;;;;5.32;2.80;;;;;;;2.90;100.00;97238.69;10366670;28;20126;-80
2022/01/09 15:16:18;;;;;;;8.80;2.90;;;;;;;2.78;100.00;97255.09;10332260;28;20058;-79
2022/01/09 15:21:19;;;;;;;7.22;3.00;;;;;;;2.78;100.00;97263.84;10367864;28;20173;-81
2022/01/09 15:26:22;;;;;;;;;;;;;;;2.73;100.00;97276.41;10371863;28;20065;-78
2022/01/09 15:31:23;;;;;;;5.18;3.35;;;;;;;2.64;100.00;97280.81;10343875;28;19936;-79
2022/01/09 15:36:23;;;;;;;4.13;2.75;;;;;;;2.64;100.00;97289.56;10334294;28;20061;-79
2022/01/09 15:41:29;;;;;;;5.60;2.88;;;;;;;2.65;100.00;97295.63;10366520;28;20080;-79
2022/01/09 15:46:30;;;;;;;8.02;3.80;;;;;;;2.54;100.00;97301.13;10364523;28;20061;-80
2022/01/09 15:51:33;;;;;;;5.32;2.60;;;;;;;2.53;100.00;97307.50;10313960;28;20054;-79
2022/01/09 15:56:35;;;;;;;;;;;;;;;2.52;100.00;97311.25;10319821;28;20050;-79
2022/01/09 16:01:37;;;;;;;7.63;3.90;;;;;;;2.45;100.00;97312.72;10365780;28;19932;-79
2022/01/09 16:06:37;;;;;;;6.25;3.63;;;;;;;2.47;100.00;97318.50;10362058;28;20059;-79
2022/01/09 16:11:39;;;;;;;6.18;3.47;;;;;;;2.40;100.00;97329.50;10358612;28;20112;-79
2022/01/09 16:16:44;;;;;;;9.45;3.70;;;;;;;2.37;100.00;97337.22;10379210;28;20054;-80
2022/01/09 16:21:46;;;;;;;7.27;3.80;;;;;;;2.36;100.00;97359.47;10369047;28;20054;-78
2022/01/09 16:26:47;;;;;;;7.88;3.63;;;;;;;2.31;100.00;97360.38;10345553;28;20062;-78
2022/01/09 16:31:48;;;;;;;6.38;2.90;;;;;;;2.27;100.00;97375.25;10352898;28;20050;-79
2022/01/09 16:36:51;;;;;;;6.60;2.90;;;;;;;2.25;100.00;97372.09;10361686;28;20066;-80
2022/01/09 16:42:02;;;;;;;5.85;2.80;;;;;;;2.13;100.00;97379.72;10301520;28;20964;-80
2022/01/09 16:47:10;;;;;;;9.48;4.65;;;;;;;2.12;100.00;97384.25;10328913;28;20405;-79
2022/01/09 16:52:12;;;;;;;8.13;3.40;;;;;;;2.06;100.00;97392.53;10344936;28;20081;-79
2022/01/09 16:57:13;;;;;;;7.95;4.70;;;;;;;2.05;100.00;97393.63;10352799;28;20072;-84
2022/01/09 17:02:13;;;;;;;7.28;4.30;;;;;;;2.02;100.00;97396.84;10325803;28;20054;-79
2022/01/09 17:07:14;;;;;;;8.23;4.53;;;;;;;1.98;100.00;97409.88;10336145;28;20050;-81
2022/01/09 17:12:16;;;;;;;7.95;4.10;;;;;;;1.92;100.00;97414.47;10310300;28;20078;-79
2022/01/09 17:17:21;;;;;;;8.45;4.68;;;;;;;1.90;100.00;97431.69;10336897;28;20112;-79
2022/01/09 17:22:21;;;;;;;10.70;6.20;;;;;;;1.92;100.00;97440.09;10294054;28;20515;-80
2022/01/09 17:27:23;;;;;;;9.90;5.20;;;;;;;1.90;100.00;97439.63;10320520;28;20065;-79
2022/01/09 17:32:26;;;;;;;9.27;5.78;;;;;;;1.91;100.00;97441.19;10338635;28;20051;-79
2022/01/09 17:37:28;;;;;;;11.77;5.80;;;;;;;1.88;100.00;97437.25;10353231;28;20046;-80
2022/01/09 17:42:30;;;;;;;10.10;5.72;;;;;;;1.89;100.00;97438.81;10350593;28;20054;-80
2022/01/09 17:47:33;;;;;;;10.80;5.97;;;;;;;1.85;100.00;97452.94;10354009;28;20066;-78
2022/01/09 17:52:34;;;;;;;11.95;6.25;;;;;;;1.83;100.00;97461.16;10313972;28;20086;-80
2022/01/09 17:57:35;;;;;;;8.23;5.53;;;;;;;1.76;100.00;97455.44;10327400;28;20372;-78
2022/01/09 18:02:36;;;;;;;9.77;6.53;;;;;;;1.73;100.00;97468.41;10329104;28;20054;-78
2022/01/09 18:07:38;;;;;;;13.15;6.55;;;;;;;1.63;100.00;97478.06;10266530;28;20051;-79
2022/01/09 18:12:39;;;;;;;11.43;6.80;;;;;;;1.54;100.00;97474.47;10295888;28;20065;-79
2022/01/09 18:17:46;;;;;;;12.63;7.72;;;;;;;1.50;100.00;97481.41;10294886;28;20158;-79
2022/01/09 18:22:46;;;;;;;13.20;7.05;;;;;;;1.39;100.00;97488.69;10317014;28;20058;-78
2022/01/09 18:27:52;;;;;;;11.57;8.23;;;;;;;1.39;100.00;97495.84;10295045;28;20145;-81
2022/01/09 18:32:53;;;;;;;12.13;7.72;;;;;;;1.30;100.00;97506.25;10303048;28;20069;-79
2022/01/09 18:37:56;;;;;;;12.63;8.00;;;;;;;1.24;100.00;97509.22;10322509;28;20058;-79
2022/01/09 18:42:58;;;;;;;13.65;8.35;;;;;;;1.24;100.00;97501.28;10313021;28;20704;-78
2022/01/09 18:47:58;;;;;;;17.50;10.45;;;;;;;1.10;100.00;97503.81;10338570;28;20065;-80
2022/01/09 18:53:00;;;;;;;17.27;10.20;;;;;;;1.09;100.00;97510.16;10328886;28;20065;-79
2022/01/09 18:58:02;;;;;;;15.40;9.30;;;;;;;1.03;100.00;97513.94;10324103;28;20042;-79
2022/01/09 19:03:09;;;;;;;16.63;9.32;;;;;;;0.98;100.00;97511.31;10332807;28;20054;-80
2022/01/09 19:08:17;;;;;;;17.05;8.40;;;;;;;1.03;100.00;97519.22;10315171;28;20917;-80
2022/01/09 19:13:20;;;;;;;13.02;8.60;;;;;;;1.03;100.00;97529.78;10328106;28;20098;-80
2022/01/09 19:18:22;;;;;;;15.48;8.57;;;;;;;1.03;100.00;97524.50;10339808;28;20065;-79
2022/01/09 19:23:24;;;;;;;11.27;7.53;;;;;;;1.01;100.00;97534.56;10327978;28;20058;-80
2022/01/09 19:28:28;;;;;;;14.70;8.05;;;;;;;1.03;100.00;97535.84;10334993;28;20058;-82
2022/01/09 19:33:46;;;;;;;13.50;7.97;;;;;;;1.02;100.00;97549.34;10337228;28;20051;-82
2022/01/09 19:38:50;;;;;;;12.93;8.25;;;;;;;1.04;100.00;97561.19;10331362;28;20058;-84
2022/01/09 19:44:12;;;;;;;13.45;8.05;;;;;;;0.95;100.00;97562.88;10282877;28;20038;-83
2022/01/09 19:49:18;;;;;;;10.95;7.60;;;;;;;0.92;100.00;97568.72;10301493;28;20069;-83
2022/01/09 19:54:20;;;;;;;10.65;7.13;;;;;;;0.96;100.00;97576.88;10311844;28;20067;-82
2022/01/09 19:59:24;;;;;;;11.57;7.38;;;;;;;1.01;100.00;97580.25;10322814;28;20050;-85
2022/01/09 20:04:27;;;;;;;15.43;7.60;;;;;;;0.88;100.00;97583.53;10316395;28;20055;-83
2022/01/09 20:09:28;;;;;;;15.60;7.35;;;;;;;0.87;100.00;97595.16;10356272;28;20078;-83
2022/01/09 20:14:29;;;;;;;11.00;6.90;;;;;;;0.82;100.00;97605.75;10356616;28;20085;-79
2022/01/09 20:19:30;;;;;;;15.25;8.88;;;;;;;0.80;100.00;97608.69;10350828;28;20074;-81
2022/01/09 20:24:35;;;;;;;;;;;;;;;0.76;100.00;97612.94;10339575;28;20042;-83
2022/01/09 20:29:38;;;;;;;13.50;7.70;;;;;;;0.74;100.00;97625.66;10342804;28;19921;-78
2022/01/09 20:34:41;;;;;;;14.73;8.48;;;;;;;0.64;100.00;97625.72;10345073;28;20054;-80
2022/01/09 20:39:41;;;;;;;10.23;7.70;;;;;;;0.60;100.00;97629.16;10334837;28;20123;-79
2022/01/09 20:44:43;;;;;;;12.35;7.28;;;;;;;0.56;100.00;97636.84;10338364;28;20145;-80
2022/01/09 20:49:43;;;;;;;12.15;7.57;;;;;;;0.55;100.00;97648.47;10317345;28;20046;-82
2022/01/09 20:54:45;;;;;;;11.48;7.30;;;;;;;0.57;100.00;97656.91;10359643;28;20061;-80
2022/01/09 20:59:48;;;;;;;10.48;6.78;;;;;;;0.57;100.00;97667.47;10320818;28;20115;-81
2022/01/09 21:04:48;;;;;;;11.98;7.35;;;;;;;0.57;100.00;97667.47;10328198;28;20054;-80
2022/01/09 21:09:50;;;;;;;11.98;7.75;;;;;;;0.56;100.00;97674.59;10324350;28;20054;-80
2022/01/09 21:14:52;;;;;;;12.18;7.85;;;;;;;0.57;100.00;97672.75;10308408;28;20058;-82
2022/01/09 21:19:53;;;;;;;11.20;6.35;;;;;;;0.58;100.00;97676.97;10345683;28;20114;-82
2022/01/09 21:24:54;;;;;;;10.10;7.38;;;;;;;0.53;100.00;97677.78;10320531;28;20058;-81
2022/01/09 21:29:56;;;;;;;12.65;7.65;;;;;;;0.59;100.00;97693.59;10346821;28;20492;-82
2022/01/09 21:34:56;;;;;;;15.07;8.88;;;;;;;0.73;100.00;97699.84;10324540;28;20035;-81
2022/01/09 21:39:57;;;;;;;13.43;7.22;;;;;;;0.64;100.00;97704.94;10361277;28;20042;-81
2022/01/09 21:44:59;;;;;;;9.18;6.88;;;;;;;0.66;100.00;97721.28;10341857;28;20051;-79
2022/01/09 21:49:59;;;;;;;13.02;7.82;;;;;;;0.66;100.00;97728.44;10337137;28;20030;-79
2022/01/09 21:55:02;;;;;;;15.95;8.45;;;;;;;0.66;100.00;97731.84;10335674;28;20536;-81
2022/01/09 22:00:09;;;;;;;13.77;8.32;;;;;;;0.66;100.00;97742.41;10331871;28;20042;-82
2022/01/09 22:05:30;;;;;;;13.55;8.65;;;;;;;0.68;100.00;97747.44;10303915;28;20063;-80
2022/01/09 22:10:33;;;;;;;17.02;10.20;;;;;;;0.71;100.00;97746.88;10337869;28;20090;-79
2022/01/09 22:15:34;;;;;;;13.73;8.25;;;;;;;0.67;100.00;97754.56;10326870;28;20061;-80
2022/01/09 22:20:35;;;;;;;12.80;8.10;;;;;;;0.66;100.00;97774.09;10305392;28;20062;-79
2022/01/09 22:25:35;;;;;;;15.15;8.23;;;;;;;0.69;100.00;97773.56;10331487;28;20058;-82
2022/01/09 22:30:36;;;;;;;14.15;9.02;;;;;;;0.64;100.00;97778.06;10334365;28;20046;-80
2022/01/09 22:35:37;;;;;;;16.55;9.70;;;;;;;0.70;100.00;97780.41;10315861;28;20090;-80
2022/01/09 22:40:38;;;;;;;14.05;9.65;;;;;;;0.68;100.00;97784.41;10308090;28;20093;-80
2022/01/09 22:45:43;;;;;;;14.05;8.32;;;;;;;0.71;100.00;97797.84;10272821;28;20466;-82
2022/01/09 22:50:48;;;;;;;14.15;8.25;;;;;;;0.78;100.00;97800.19;10310194;28;20050;-82
2022/01/09 22:55:49;;;;;;;14.30;8.80;;;;;;;0.81;100.00;97800.44;10309897;28;20745;-80
2022/01/09 23:00:57;;;;;;;14.38;7.90;;;;;;;0.82;100.00;97802.03;10329220;28;20157;-79
2022/01/09 23:05:57;;;;;;;16.52;9.05;;;;;;;0.76;100.00;97808.41;10336848;28;20154;-81
2022/01/09 23:11:00;;;;;;;14.25;8.10;;;;;;;0.85;100.00;97821.84;10323528;28;20155;-85
2022/01/09 23:16:00;;;;;;;12.32;7.55;;;;;;;0.81;100.00;97823.41;10334873;28;20294;-82
2022/01/09 23:21:04;;;;;;;15.93;8.05;;;;;;;0.77;100.00;97831.09;10306219;28;20065;-81
2022/01/09 23:26:06;;;;;;;14.75;8.73;;;;;;;0.84;100.00;97828.19;10312602;28;20109;-81